Terminal Aerodrome Forecast
Issued by NWS Charleston, WV

Current Version | Previous Version | Graphics & Text | Print | Product List | Glossary On
Versions: 1 2 3 4 5 6 7 8 9 10 11 12 13 14 15 16 17 18 19 20 21 22 23
987
FTUS41 KRLX 240546 AAB
TAFEKN
TAF AMD
KEKN 240546Z 2406/2506 12006KT P6SM OVC060
     FM240900 14004KT P6SM OVC035
      TEMPO 2409/2412 4SM RA OVC025
     FM241200 12007KT P6SM OVC035
      TEMPO 2412/2415 4SM RA OVC025
     FM241500 12008G19KT P6SM -RA OVC035
     FM242000 11008G15KT 6SM -RA OVC040
     FM250100 11008KT P6SM OVC060=

USA.gov is the U.S. government's official web portal to all federal, state and local government web resources and services.